sensor_id;sensor_type;location;lat;lon;timestamp;P1;durP1;ratioP1;P2;durP2;ratioP2
60026;SDS011;45891;53.006;6.512;2022-09-09T00:03:53;19.33;;;10.15;;
60026;SDS011;45891;53.006;6.512;2022-09-09T00:09:18;17.67;;;10.35;;
60026;SDS011;45891;53.006;6.512;2022-09-09T00:11:56;17.88;;;10.48;;
60026;SDS011;45891;53.006;6.512;2022-09-09T00:17:08;19.85;;;11.00;;
60026;SDS011;45891;53.006;6.512;2022-09-09T00:22:28;18.50;;;10.45;;
60026;SDS011;45891;53.006;6.512;2022-09-09T00:25:10;17.10;;;10.60;;
60026;SDS011;45891;53.006;6.512;2022-09-09T00:30:24;16.63;;;10.20;;
60026;SDS011;45891;53.006;6.512;2022-09-09T00:32:53;17.88;;;10.50;;
60026;SDS011;45891;53.006;6.512;2022-09-09T00:35:25;20.52;;;11.10;;
60026;SDS011;45891;53.006;6.512;2022-09-09T00:37:56;18.83;;;10.27;;
60026;SDS011;45891;53.006;6.512;2022-09-09T00:40:34;17.70;;;10.20;;
60026;SDS011;45891;53.006;6.512;2022-09-09T00:49:15;15.60;;;9.73;;
60026;SDS011;45891;53.006;6.512;2022-09-09T00:52:08;16.75;;;9.82;;
60026;SDS011;45891;53.006;6.512;2022-09-09T00:57:33;15.02;;;9.73;;
60026;SDS011;45891;53.006;6.512;2022-09-09T01:05:57;21.60;;;11.32;;
60026;SDS011;45891;53.006;6.512;2022-09-09T01:22:47;19.13;;;9.95;;
60026;SDS011;45891;53.006;6.512;2022-09-09T01:25:24;18.00;;;10.40;;
60026;SDS011;45891;53.006;6.512;2022-09-09T01:28:25;19.92;;;10.95;;
60026;SDS011;45891;53.006;6.512;2022-09-09T01:30:53;17.67;;;9.95;;
60026;SDS011;45891;53.006;6.512;2022-09-09T01:33:21;16.60;;;10.20;;
60026;SDS011;45891;53.006;6.512;2022-09-09T01:35:49;18.15;;;10.10;;
60026;SDS011;45891;53.006;6.512;2022-09-09T01:38:26;16.98;;;10.02;;
60026;SDS011;45891;53.006;6.512;2022-09-09T01:40:54;15.48;;;10.10;;
60026;SDS011;45891;53.006;6.512;2022-09-09T01:43:21;16.27;;;9.38;;
60026;SDS011;45891;53.006;6.512;2022-09-09T01:45:48;17.00;;;9.93;;
60026;SDS011;45891;53.006;6.512;2022-09-09T01:48:18;17.02;;;10.02;;
60026;SDS011;45891;53.006;6.512;2022-09-09T01:50:45;17.88;;;10.02;;
60026;SDS011;45891;53.006;6.512;2022-09-09T01:53:11;15.70;;;9.15;;
60026;SDS011;45891;53.006;6.512;2022-09-09T01:55:40;17.08;;;10.13;;
60026;SDS011;45891;53.006;6.512;2022-09-09T01:58:16;21.48;;;9.45;;
60026;SDS011;45891;53.006;6.512;2022-09-09T02:01:06;15.18;;;9.00;;
60026;SDS011;45891;53.006;6.512;2022-09-09T02:03:44;15.15;;;9.13;;
60026;SDS011;45891;53.006;6.512;2022-09-09T02:08:59;16.20;;;9.05;;
60026;SDS011;45891;53.006;6.512;2022-09-09T02:14:16;19.20;;;8.65;;
60026;SDS011;45891;53.006;6.512;2022-09-09T02:16:55;16.15;;;8.38;;
60026;SDS011;45891;53.006;6.512;2022-09-09T02:19:31;16.10;;;8.98;;
60026;SDS011;45891;53.006;6.512;2022-09-09T02:22:00;20.27;;;8.80;;
60026;SDS011;45891;53.006;6.512;2022-09-09T02:24:28;17.88;;;8.57;;
60026;SDS011;45891;53.006;6.512;2022-09-09T02:26:58;16.73;;;8.50;;
60026;SDS011;45891;53.006;6.512;2022-09-09T02:29:39;18.30;;;8.52;;
60026;SDS011;45891;53.006;6.512;2022-09-09T02:32:09;16.48;;;7.93;;
60026;SDS011;45891;53.006;6.512;2022-09-09T02:34:40;16.70;;;8.20;;
60026;SDS011;45891;53.006;6.512;2022-09-09T02:37:10;14.93;;;7.35;;
60026;SDS011;45891;53.006;6.512;2022-09-09T02:39:38;15.70;;;7.57;;
60026;SDS011;45891;53.006;6.512;2022-09-09T02:42:04;16.35;;;7.18;;
60026;SDS011;45891;53.006;6.512;2022-09-09T02:44:31;15.20;;;7.50;;
60026;SDS011;45891;53.006;6.512;2022-09-09T02:47:02;14.45;;;7.43;;
60026;SDS011;45891;53.006;6.512;2022-09-09T02:55:45;16.83;;;6.90;;
60026;SDS011;45891;53.006;6.512;2022-09-09T02:58:15;13.43;;;6.50;;
60026;SDS011;45891;53.006;6.512;2022-09-09T03:00:45;14.05;;;6.32;;
60026;SDS011;45891;53.006;6.512;2022-09-09T03:03:13;14.30;;;7.00;;
60026;SDS011;45891;53.006;6.512;2022-09-09T03:05:41;16.65;;;7.22;;
60026;SDS011;45891;53.006;6.512;2022-09-09T03:08:08;25.75;;;6.93;;
60026;SDS011;45891;53.006;6.512;2022-09-09T03:10:35;18.08;;;6.88;;
60026;SDS011;45891;53.006;6.512;2022-09-09T03:13:02;17.48;;;7.10;;
60026;SDS011;45891;53.006;6.512;2022-09-09T03:15:31;18.13;;;6.70;;
60026;SDS011;45891;53.006;6.512;2022-09-09T03:17:59;15.95;;;6.95;;
60026;SDS011;45891;53.006;6.512;2022-09-09T03:20:26;14.02;;;6.60;;
60026;SDS011;45891;53.006;6.512;2022-09-09T03:22:53;17.25;;;6.95;;
60026;SDS011;45891;53.006;6.512;2022-09-09T03:25:20;13.20;;;6.35;;
60026;SDS011;45891;53.006;6.512;2022-09-09T03:27:51;15.93;;;6.13;;
60026;SDS011;45891;53.006;6.512;2022-09-09T03:30:23;12.02;;;5.75;;
60026;SDS011;45891;53.006;6.512;2022-09-09T03:32:50;14.30;;;6.13;;
60026;SDS011;45891;53.006;6.512;2022-09-09T03:35:17;12.77;;;5.60;;
60026;SDS011;45891;53.006;6.512;2022-09-09T03:37:44;13.13;;;6.00;;
60026;SDS011;45891;53.006;6.512;2022-09-09T03:40:11;18.40;;;7.10;;
60026;SDS011;45891;53.006;6.512;2022-09-09T03:42:37;15.15;;;6.30;;
60026;SDS011;45891;53.006;6.512;2022-09-09T03:45:04;16.10;;;6.25;;
60026;SDS011;45891;53.006;6.512;2022-09-09T03:47:32;16.52;;;7.03;;
60026;SDS011;45891;53.006;6.512;2022-09-09T03:49:58;14.65;;;6.30;;
60026;SDS011;45891;53.006;6.512;2022-09-09T03:52:24;16.58;;;6.65;;
60026;SDS011;45891;53.006;6.512;2022-09-09T03:54:52;13.55;;;6.75;;
60026;SDS011;45891;53.006;6.512;2022-09-09T03:57:19;14.57;;;7.03;;
60026;SDS011;45891;53.006;6.512;2022-09-09T03:59:45;15.15;;;6.43;;
60026;SDS011;45891;53.006;6.512;2022-09-09T04:02:11;17.38;;;7.10;;
60026;SDS011;45891;53.006;6.512;2022-09-09T04:04:38;14.32;;;5.95;;
60026;SDS011;45891;53.006;6.512;2022-09-09T04:07:04;14.65;;;6.35;;
60026;SDS011;45891;53.006;6.512;2022-09-09T04:09:32;15.40;;;6.70;;
60026;SDS011;45891;53.006;6.512;2022-09-09T04:11:58;12.68;;;5.95;;
60026;SDS011;45891;53.006;6.512;2022-09-09T04:14:25;16.55;;;6.70;;
60026;SDS011;45891;53.006;6.512;2022-09-09T04:16:54;16.95;;;7.13;;
60026;SDS011;45891;53.006;6.512;2022-09-09T04:19:22;15.15;;;6.93;;
60026;SDS011;45891;53.006;6.512;2022-09-09T04:21:49;14.63;;;7.15;;
60026;SDS011;45891;53.006;6.512;2022-09-09T04:24:16;15.23;;;7.97;;
60026;SDS011;45891;53.006;6.512;2022-09-09T04:26:43;13.63;;;7.70;;
60026;SDS011;45891;53.006;6.512;2022-09-09T04:29:09;17.90;;;8.02;;
60026;SDS011;45891;53.006;6.512;2022-09-09T04:31:36;17.92;;;8.63;;
60026;SDS011;45891;53.006;6.512;2022-09-09T04:34:03;14.20;;;7.65;;
60026;SDS011;45891;53.006;6.512;2022-09-09T04:36:31;13.73;;;7.93;;
60026;SDS011;45891;53.006;6.512;2022-09-09T04:38:58;14.57;;;8.18;;
60026;SDS011;45891;53.006;6.512;2022-09-09T04:41:24;15.48;;;8.55;;
60026;SDS011;45891;53.006;6.512;2022-09-09T04:43:50;17.92;;;8.60;;
60026;SDS011;45891;53.006;6.512;2022-09-09T04:46:17;17.08;;;9.05;;
60026;SDS011;45891;53.006;6.512;2022-09-09T04:48:43;16.67;;;8.52;;
60026;SDS011;45891;53.006;6.512;2022-09-09T04:51:11;19.02;;;9.40;;
60026;SDS011;45891;53.006;6.512;2022-09-09T04:53:39;15.70;;;9.15;;
60026;SDS011;45891;53.006;6.512;2022-09-09T04:56:06;19.23;;;9.60;;
60026;SDS011;45891;53.006;6.512;2022-09-09T04:58:35;17.33;;;9.30;;
60026;SDS011;45891;53.006;6.512;2022-09-09T05:01:06;24.95;;;11.13;;
60026;SDS011;45891;53.006;6.512;2022-09-09T05:03:36;18.00;;;10.20;;
60026;SDS011;45891;53.006;6.512;2022-09-09T05:06:10;18.63;;;10.50;;
60026;SDS011;45891;53.006;6.512;2022-09-09T05:08:41;20.98;;;10.57;;
60026;SDS011;45891;53.006;6.512;2022-09-09T05:11:19;20.25;;;10.65;;
60026;SDS011;45891;53.006;6.512;2022-09-09T05:13:48;19.75;;;11.43;;
60026;SDS011;45891;53.006;6.512;2022-09-09T05:16:16;18.70;;;11.60;;
60026;SDS011;45891;53.006;6.512;2022-09-09T05:18:43;20.88;;;11.32;;
60026;SDS011;45891;53.006;6.512;2022-09-09T05:21:10;18.58;;;11.75;;
60026;SDS011;45891;53.006;6.512;2022-09-09T05:23:37;22.05;;;12.20;;
60026;SDS011;45891;53.006;6.512;2022-09-09T05:26:03;26.63;;;12.40;;
60026;SDS011;45891;53.006;6.512;2022-09-09T05:28:30;20.73;;;11.93;;
60026;SDS011;45891;53.006;6.512;2022-09-09T05:31:00;20.33;;;12.63;;
60026;SDS011;45891;53.006;6.512;2022-09-09T05:33:29;20.88;;;11.23;;
60026;SDS011;45891;53.006;6.512;2022-09-09T05:35:57;22.45;;;11.55;;
60026;SDS011;45891;53.006;6.512;2022-09-09T05:38:31;20.20;;;11.35;;
60026;SDS011;45891;53.006;6.512;2022-09-09T05:40:58;19.23;;;11.70;;
60026;SDS011;45891;53.006;6.512;2022-09-09T05:43:25;22.80;;;11.40;;
60026;SDS011;45891;53.006;6.512;2022-09-09T05:45:59;17.88;;;10.73;;
60026;SDS011;45891;53.006;6.512;2022-09-09T05:48:34;19.02;;;10.60;;
60026;SDS011;45891;53.006;6.512;2022-09-09T05:51:02;18.50;;;10.73;;
60026;SDS011;45891;53.006;6.512;2022-09-09T05:53:29;16.98;;;10.32;;
60026;SDS011;45891;53.006;6.512;2022-09-09T05:56:00;19.47;;;9.83;;
60026;SDS011;45891;53.006;6.512;2022-09-09T05:58:29;16.80;;;10.63;;
60026;SDS011;45891;53.006;6.512;2022-09-09T06:03:36;20.75;;;10.77;;
60026;SDS011;45891;53.006;6.512;2022-09-09T06:06:04;20.20;;;10.00;;
60026;SDS011;45891;53.006;6.512;2022-09-09T06:08:36;19.58;;;10.38;;
60026;SDS011;45891;53.006;6.512;2022-09-09T06:11:05;16.77;;;9.93;;
60026;SDS011;45891;53.006;6.512;2022-09-09T06:13:36;15.70;;;9.50;;
60026;SDS011;45891;53.006;6.512;2022-09-09T06:16:04;20.20;;;10.77;;
60026;SDS011;45891;53.006;6.512;2022-09-09T06:18:33;17.52;;;10.23;;
60026;SDS011;45891;53.006;6.512;2022-09-09T06:21:00;17.90;;;9.90;;
60026;SDS011;45891;53.006;6.512;2022-09-09T06:23:29;19.48;;;10.32;;
60026;SDS011;45891;53.006;6.512;2022-09-09T06:26:03;15.60;;;9.77;;
60026;SDS011;45891;53.006;6.512;2022-09-09T06:28:35;15.88;;;9.75;;
60026;SDS011;45891;53.006;6.512;2022-09-09T06:31:03;14.55;;;9.60;;
60026;SDS011;45891;53.006;6.512;2022-09-09T06:33:32;14.38;;;9.35;;
60026;SDS011;45891;53.006;6.512;2022-09-09T06:36:03;22.23;;;10.98;;
60026;SDS011;45891;53.006;6.512;2022-09-09T06:38:29;14.45;;;9.10;;
60026;SDS011;45891;53.006;6.512;2022-09-09T06:40:57;14.73;;;8.80;;
60026;SDS011;45891;53.006;6.512;2022-09-09T06:43:25;14.45;;;8.85;;
60026;SDS011;45891;53.006;6.512;2022-09-09T06:45:58;16.15;;;9.20;;
60026;SDS011;45891;53.006;6.512;2022-09-09T06:48:26;12.52;;;8.13;;
60026;SDS011;45891;53.006;6.512;2022-09-09T06:53:33;15.15;;;8.63;;
60026;SDS011;45891;53.006;6.512;2022-09-09T06:56:18;15.65;;;8.40;;
60026;SDS011;45891;53.006;6.512;2022-09-09T06:58:57;17.92;;;8.65;;
60026;SDS011;45891;53.006;6.512;2022-09-09T07:01:25;14.80;;;9.05;;
60026;SDS011;45891;53.006;6.512;2022-09-09T07:03:54;14.35;;;8.00;;
60026;SDS011;45891;53.006;6.512;2022-09-09T07:06:22;15.00;;;8.77;;
60026;SDS011;45891;53.006;6.512;2022-09-09T07:08:50;15.43;;;8.82;;
60026;SDS011;45891;53.006;6.512;2022-09-09T07:11:18;15.82;;;8.30;;
60026;SDS011;45891;53.006;6.512;2022-09-09T07:13:46;14.52;;;7.90;;
60026;SDS011;45891;53.006;6.512;2022-09-09T07:16:14;14.80;;;8.43;;
60026;SDS011;45891;53.006;6.512;2022-09-09T07:18:41;13.02;;;7.38;;
60026;SDS011;45891;53.006;6.512;2022-09-09T07:21:09;13.10;;;7.80;;
60026;SDS011;45891;53.006;6.512;2022-09-09T07:23:37;15.77;;;7.95;;
60026;SDS011;45891;53.006;6.512;2022-09-09T07:26:08;14.60;;;7.55;;
60026;SDS011;45891;53.006;6.512;2022-09-09T07:28:47;14.82;;;7.40;;
60026;SDS011;45891;53.006;6.512;2022-09-09T07:31:16;15.65;;;7.85;;
60026;SDS011;45891;53.006;6.512;2022-09-09T07:33:44;13.25;;;8.48;;
60026;SDS011;45891;53.006;6.512;2022-09-09T07:36:15;13.52;;;7.57;;
60026;SDS011;45891;53.006;6.512;2022-09-09T07:38:45;15.40;;;7.77;;
60026;SDS011;45891;53.006;6.512;2022-09-09T07:41:14;13.65;;;7.50;;
60026;SDS011;45891;53.006;6.512;2022-09-09T07:43:44;15.20;;;6.80;;
60026;SDS011;45891;53.006;6.512;2022-09-09T07:46:12;13.73;;;6.38;;
60026;SDS011;45891;53.006;6.512;2022-09-09T07:48:47;15.32;;;8.18;;
60026;SDS011;45891;53.006;6.512;2022-09-09T07:51:21;11.68;;;6.13;;
60026;SDS011;45891;53.006;6.512;2022-09-09T07:53:56;11.27;;;5.50;;
60026;SDS011;45891;53.006;6.512;2022-09-09T07:56:26;10.73;;;5.13;;
60026;SDS011;45891;53.006;6.512;2022-09-09T07:58:53;11.00;;;5.20;;
60026;SDS011;45891;53.006;6.512;2022-09-09T08:04:07;14.13;;;4.93;;
60026;SDS011;45891;53.006;6.512;2022-09-09T08:06:36;11.65;;;4.72;;
60026;SDS011;45891;53.006;6.512;2022-09-09T08:09:05;11.30;;;4.75;;
60026;SDS011;45891;53.006;6.512;2022-09-09T08:11:33;9.98;;;4.80;;
60026;SDS011;45891;53.006;6.512;2022-09-09T08:14:01;12.65;;;4.20;;
60026;SDS011;45891;53.006;6.512;2022-09-09T08:16:30;12.00;;;4.60;;
60026;SDS011;45891;53.006;6.512;2022-09-09T08:18:58;13.95;;;5.18;;
60026;SDS011;45891;53.006;6.512;2022-09-09T08:21:28;11.73;;;4.38;;
60026;SDS011;45891;53.006;6.512;2022-09-09T08:23:56;11.35;;;4.53;;
60026;SDS011;45891;53.006;6.512;2022-09-09T08:26:30;10.82;;;4.78;;
60026;SDS011;45891;53.006;6.512;2022-09-09T08:28:58;11.88;;;4.90;;
60026;SDS011;45891;53.006;6.512;2022-09-09T08:31:33;14.70;;;4.97;;
60026;SDS011;45891;53.006;6.512;2022-09-09T08:34:00;12.07;;;4.60;;
60026;SDS011;45891;53.006;6.512;2022-09-09T08:36:29;10.75;;;4.50;;
60026;SDS011;45891;53.006;6.512;2022-09-09T08:38:59;14.45;;;4.30;;
60026;SDS011;45891;53.006;6.512;2022-09-09T08:44:10;11.48;;;3.95;;
60026;SDS011;45891;53.006;6.512;2022-09-09T08:50:07;9.93;;;3.38;;
60026;SDS011;45891;53.006;6.512;2022-09-09T08:52:55;13.85;;;3.55;;
60026;SDS011;45891;53.006;6.512;2022-09-09T08:58:19;10.52;;;3.22;;
60026;SDS011;45891;53.006;6.512;2022-09-09T09:03:59;10.13;;;3.30;;
60026;SDS011;45891;53.006;6.512;2022-09-09T09:12:06;10.75;;;3.08;;
60026;SDS011;45891;53.006;6.512;2022-09-09T09:14:40;10.68;;;3.03;;
60026;SDS011;45891;53.006;6.512;2022-09-09T09:17:12;14.02;;;3.30;;
60026;SDS011;45891;53.006;6.512;2022-09-09T09:19:42;13.40;;;3.47;;
60026;SDS011;45891;53.006;6.512;2022-09-09T09:25:15;11.40;;;2.72;;
60026;SDS011;45891;53.006;6.512;2022-09-09T09:30:35;12.73;;;3.00;;
60026;SDS011;45891;53.006;6.512;2022-09-09T09:36:12;13.45;;;2.85;;
60026;SDS011;45891;53.006;6.512;2022-09-09T09:38:54;10.82;;;2.90;;
60026;SDS011;45891;53.006;6.512;2022-09-09T09:41:31;13.02;;;2.60;;
60026;SDS011;45891;53.006;6.512;2022-09-09T09:44:23;14.40;;;2.65;;
60026;SDS011;45891;53.006;6.512;2022-09-09T09:47:17;11.10;;;2.65;;
60026;SDS011;45891;53.006;6.512;2022-09-09T09:49:54;13.10;;;2.75;;
60026;SDS011;45891;53.006;6.512;2022-09-09T09:52:22;10.45;;;2.63;;
60026;SDS011;45891;53.006;6.512;2022-09-09T09:54:50;13.38;;;3.00;;
60026;SDS011;45891;53.006;6.512;2022-09-09T09:57:17;12.15;;;2.65;;
60026;SDS011;45891;53.006;6.512;2022-09-09T09:59:59;13.07;;;2.67;;
60026;SDS011;45891;53.006;6.512;2022-09-09T10:02:39;14.88;;;2.70;;
60026;SDS011;45891;53.006;6.512;2022-09-09T10:05:15;13.10;;;3.07;;
60026;SDS011;45891;53.006;6.512;2022-09-09T10:07:42;12.85;;;2.42;;
60026;SDS011;45891;53.006;6.512;2022-09-09T10:10:12;14.38;;;2.70;;
60026;SDS011;45891;53.006;6.512;2022-09-09T10:13:04;11.73;;;2.35;;
60026;SDS011;45891;53.006;6.512;2022-09-09T10:26:36;9.98;;;2.00;;
60026;SDS011;45891;53.006;6.512;2022-09-09T10:46:00;9.27;;;1.60;;
60026;SDS011;45891;53.006;6.512;2022-09-09T10:48:56;8.93;;;1.70;;
60026;SDS011;45891;53.006;6.512;2022-09-09T10:54:28;12.90;;;2.03;;
60026;SDS011;45891;53.006;6.512;2022-09-09T10:57:39;13.85;;;2.20;;
60026;SDS011;45891;53.006;6.512;2022-09-09T11:02:56;10.52;;;2.10;;
60026;SDS011;45891;53.006;6.512;2022-09-09T11:05:42;12.80;;;2.15;;
60026;SDS011;45891;53.006;6.512;2022-09-09T11:08:12;8.63;;;1.70;;
60026;SDS011;45891;53.006;6.512;2022-09-09T11:10:45;8.37;;;1.70;;
60026;SDS011;45891;53.006;6.512;2022-09-09T11:13:40;9.50;;;1.80;;
60026;SDS011;45891;53.006;6.512;2022-09-09T11:18:55;11.82;;;2.20;;
60026;SDS011;45891;53.006;6.512;2022-09-09T11:21:30;11.20;;;1.85;;
60026;SDS011;45891;53.006;6.512;2022-09-09T11:24:03;9.18;;;1.80;;
60026;SDS011;45891;53.006;6.512;2022-09-09T11:26:39;10.23;;;1.70;;
60026;SDS011;45891;53.006;6.512;2022-09-09T11:37:13;12.05;;;1.92;;
60026;SDS011;45891;53.006;6.512;2022-09-09T11:40:08;10.55;;;2.00;;
60026;SDS011;45891;53.006;6.512;2022-09-09T11:42:39;10.90;;;2.00;;
60026;SDS011;45891;53.006;6.512;2022-09-09T11:45:25;10.40;;;1.70;;
60026;SDS011;45891;53.006;6.512;2022-09-09T11:48:03;11.20;;;1.80;;
60026;SDS011;45891;53.006;6.512;2022-09-09T11:50:32;11.50;;;1.80;;
60026;SDS011;45891;53.006;6.512;2022-09-09T11:53:04;9.60;;;1.63;;
60026;SDS011;45891;53.006;6.512;2022-09-09T11:55:39;9.68;;;1.70;;
60026;SDS011;45891;53.006;6.512;2022-09-09T11:58:26;10.73;;;1.52;;
60026;SDS011;45891;53.006;6.512;2022-09-09T12:00:54;9.35;;;1.63;;
60026;SDS011;45891;53.006;6.512;2022-09-09T12:06:17;9.43;;;2.25;;
60026;SDS011;45891;53.006;6.512;2022-09-09T12:08:51;13.48;;;2.25;;
60026;SDS011;45891;53.006;6.512;2022-09-09T12:11:26;9.68;;;1.73;;
60026;SDS011;45891;53.006;6.512;2022-09-09T12:13:58;10.27;;;1.80;;
60026;SDS011;45891;53.006;6.512;2022-09-09T12:16:36;10.70;;;2.20;;
60026;SDS011;45891;53.006;6.512;2022-09-09T12:19:13;12.68;;;2.17;;
60026;SDS011;45891;53.006;6.512;2022-09-09T12:21:53;9.90;;;1.83;;
60026;SDS011;45891;53.006;6.512;2022-09-09T12:27:18;14.13;;;1.95;;
60026;SDS011;45891;53.006;6.512;2022-09-09T12:32:24;9.43;;;1.80;;
60026;SDS011;45891;53.006;6.512;2022-09-09T12:37:38;9.48;;;1.60;;
60026;SDS011;45891;53.006;6.512;2022-09-09T12:40:22;11.23;;;1.98;;
60026;SDS011;45891;53.006;6.512;2022-09-09T12:43:01;10.82;;;1.58;;
60026;SDS011;45891;53.006;6.512;2022-09-09T12:45:31;10.65;;;2.00;;
60026;SDS011;45891;53.006;6.512;2022-09-09T12:48:05;9.73;;;1.67;;
60026;SDS011;45891;53.006;6.512;2022-09-09T12:50:37;9.52;;;1.92;;
60026;SDS011;45891;53.006;6.512;2022-09-09T12:53:14;10.40;;;1.83;;
60026;SDS011;45891;53.006;6.512;2022-09-09T12:56:01;10.07;;;1.75;;
60026;SDS011;45891;53.006;6.512;2022-09-09T12:58:30;10.82;;;1.90;;
60026;SDS011;45891;53.006;6.512;2022-09-09T13:01:01;12.05;;;2.10;;
60026;SDS011;45891;53.006;6.512;2022-09-09T13:03:31;8.65;;;1.60;;
60026;SDS011;45891;53.006;6.512;2022-09-09T13:05:59;10.48;;;1.80;;
60026;SDS011;45891;53.006;6.512;2022-09-09T13:08:37;8.43;;;1.58;;
60026;SDS011;45891;53.006;6.512;2022-09-09T13:11:06;9.07;;;1.75;;
60026;SDS011;45891;53.006;6.512;2022-09-09T13:13:38;8.98;;;1.50;;
60026;SDS011;45891;53.006;6.512;2022-09-09T13:16:07;10.93;;;1.63;;
60026;SDS011;45891;53.006;6.512;2022-09-09T13:18:48;8.65;;;1.55;;
60026;SDS011;45891;53.006;6.512;2022-09-09T13:21:15;8.52;;;1.40;;
60026;SDS011;45891;53.006;6.512;2022-09-09T13:23:41;11.50;;;1.30;;
60026;SDS011;45891;53.006;6.512;2022-09-09T13:28:47;6.95;;;1.20;;
60026;SDS011;45891;53.006;6.512;2022-09-09T13:31:21;10.93;;;3.92;;
60026;SDS011;45891;53.006;6.512;2022-09-09T13:36:30;9.13;;;1.77;;
60026;SDS011;45891;53.006;6.512;2022-09-09T13:39:00;8.90;;;1.48;;
60026;SDS011;45891;53.006;6.512;2022-09-09T13:41:30;8.88;;;1.33;;
60026;SDS011;45891;53.006;6.512;2022-09-09T13:43:59;8.27;;;1.50;;
60026;SDS011;45891;53.006;6.512;2022-09-09T13:49:16;8.55;;;1.60;;
60026;SDS011;45891;53.006;6.512;2022-09-09T13:51:47;11.77;;;1.63;;
60026;SDS011;45891;53.006;6.512;2022-09-09T13:54:17;7.97;;;1.48;;
60026;SDS011;45891;53.006;6.512;2022-09-09T13:56:44;7.85;;;1.30;;
60026;SDS011;45891;53.006;6.512;2022-09-09T13:59:15;8.20;;;1.35;;
60026;SDS011;45891;53.006;6.512;2022-09-09T14:01:45;7.45;;;1.25;;
60026;SDS011;45891;53.006;6.512;2022-09-09T14:04:11;9.05;;;1.40;;
60026;SDS011;45891;53.006;6.512;2022-09-09T14:06:38;5.00;;;0.90;;
60026;SDS011;45891;53.006;6.512;2022-09-09T14:09:06;6.97;;;1.00;;
60026;SDS011;45891;53.006;6.512;2022-09-09T14:11:33;5.38;;;0.70;;
60026;SDS011;45891;53.006;6.512;2022-09-09T14:13:59;6.30;;;0.80;;
60026;SDS011;45891;53.006;6.512;2022-09-09T14:16:26;6.63;;;0.90;;
60026;SDS011;45891;53.006;6.512;2022-09-09T14:18:53;4.55;;;0.80;;
60026;SDS011;45891;53.006;6.512;2022-09-09T14:21:21;4.63;;;0.80;;
60026;SDS011;45891;53.006;6.512;2022-09-09T14:23:48;4.82;;;0.90;;
60026;SDS011;45891;53.006;6.512;2022-09-09T14:26:14;8.20;;;1.00;;
60026;SDS011;45891;53.006;6.512;2022-09-09T14:28:41;7.45;;;0.95;;
60026;SDS011;45891;53.006;6.512;2022-09-09T14:31:07;7.35;;;1.23;;
60026;SDS011;45891;53.006;6.512;2022-09-09T14:33:33;7.38;;;1.17;;
60026;SDS011;45891;53.006;6.512;2022-09-09T14:36:01;5.70;;;1.00;;
60026;SDS011;45891;53.006;6.512;2022-09-09T14:38:29;6.45;;;1.27;;
60026;SDS011;45891;53.006;6.512;2022-09-09T14:40:56;7.05;;;1.40;;
60026;SDS011;45891;53.006;6.512;2022-09-09T14:43:24;8.85;;;1.73;;
60026;SDS011;45891;53.006;6.512;2022-09-09T14:45:50;8.35;;;1.25;;
60026;SDS011;45891;53.006;6.512;2022-09-09T14:48:19;7.57;;;1.20;;
60026;SDS011;45891;53.006;6.512;2022-09-09T14:50:45;7.03;;;1.30;;
60026;SDS011;45891;53.006;6.512;2022-09-09T14:53:11;7.05;;;1.40;;
60026;SDS011;45891;53.006;6.512;2022-09-09T14:55:39;8.38;;;1.23;;
60026;SDS011;45891;53.006;6.512;2022-09-09T14:58:05;9.45;;;1.10;;
60026;SDS011;45891;53.006;6.512;2022-09-09T15:00:31;5.95;;;1.20;;
60026;SDS011;45891;53.006;6.512;2022-09-09T15:02:57;6.57;;;1.10;;
60026;SDS011;45891;53.006;6.512;2022-09-09T15:05:24;8.10;;;1.00;;
60026;SDS011;45891;53.006;6.512;2022-09-09T15:07:50;5.03;;;0.93;;
60026;SDS011;45891;53.006;6.512;2022-09-09T15:10:16;6.45;;;1.10;;
60026;SDS011;45891;53.006;6.512;2022-09-09T15:12:43;7.60;;;1.10;;
60026;SDS011;45891;53.006;6.512;2022-09-09T15:15:10;6.03;;;1.02;;
60026;SDS011;45891;53.006;6.512;2022-09-09T15:17:36;4.80;;;1.00;;
60026;SDS011;45891;53.006;6.512;2022-09-09T15:20:03;6.30;;;1.10;;
60026;SDS011;45891;53.006;6.512;2022-09-09T15:22:31;6.72;;;1.05;;
60026;SDS011;45891;53.006;6.512;2022-09-09T15:24:58;6.00;;;1.20;;
60026;SDS011;45891;53.006;6.512;2022-09-09T15:27:24;7.03;;;1.27;;
60026;SDS011;45891;53.006;6.512;2022-09-09T15:29:50;6.40;;;1.20;;
60026;SDS011;45891;53.006;6.512;2022-09-09T15:32:17;6.40;;;1.23;;
60026;SDS011;45891;53.006;6.512;2022-09-09T15:34:43;6.45;;;1.10;;
60026;SDS011;45891;53.006;6.512;2022-09-09T15:37:10;5.80;;;1.02;;
60026;SDS011;45891;53.006;6.512;2022-09-09T15:39:39;6.32;;;1.10;;
60026;SDS011;45891;53.006;6.512;2022-09-09T15:42:06;7.68;;;1.30;;
60026;SDS011;45891;53.006;6.512;2022-09-09T15:44:40;7.13;;;1.27;;
60026;SDS011;45891;53.006;6.512;2022-09-09T15:47:08;6.68;;;1.10;;
60026;SDS011;45891;53.006;6.512;2022-09-09T15:49:38;5.73;;;0.90;;
60026;SDS011;45891;53.006;6.512;2022-09-09T15:52:04;6.68;;;1.20;;
60026;SDS011;45891;53.006;6.512;2022-09-09T15:54:31;6.75;;;1.15;;
60026;SDS011;45891;53.006;6.512;2022-09-09T15:56:59;7.82;;;1.17;;
60026;SDS011;45891;53.006;6.512;2022-09-09T15:59:28;6.28;;;1.10;;
60026;SDS011;45891;53.006;6.512;2022-09-09T16:01:55;5.80;;;1.20;;
60026;SDS011;45891;53.006;6.512;2022-09-09T16:04:22;7.35;;;1.20;;
60026;SDS011;45891;53.006;6.512;2022-09-09T16:06:53;6.75;;;1.30;;
60026;SDS011;45891;53.006;6.512;2022-09-09T16:09:24;7.43;;;1.40;;
60026;SDS011;45891;53.006;6.512;2022-09-09T16:11:52;7.53;;;1.42;;
60026;SDS011;45891;53.006;6.512;2022-09-09T16:14:19;7.85;;;1.35;;
60026;SDS011;45891;53.006;6.512;2022-09-09T16:16:45;8.75;;;1.30;;
60026;SDS011;45891;53.006;6.512;2022-09-09T16:19:12;5.78;;;1.30;;
60026;SDS011;45891;53.006;6.512;2022-09-09T16:21:39;9.35;;;1.50;;
60026;SDS011;45891;53.006;6.512;2022-09-09T16:24:08;6.22;;;1.40;;
60026;SDS011;45891;53.006;6.512;2022-09-09T16:26:36;7.32;;;1.30;;
60026;SDS011;45891;53.006;6.512;2022-09-09T16:29:04;8.75;;;1.40;;
60026;SDS011;45891;53.006;6.512;2022-09-09T16:31:31;7.47;;;1.40;;
60026;SDS011;45891;53.006;6.512;2022-09-09T16:33:57;8.02;;;1.50;;
60026;SDS011;45891;53.006;6.512;2022-09-09T16:36:25;6.68;;;1.58;;
60026;SDS011;45891;53.006;6.512;2022-09-09T16:38:53;8.13;;;1.60;;
60026;SDS011;45891;53.006;6.512;2022-09-09T16:41:20;7.55;;;1.42;;
60026;SDS011;45891;53.006;6.512;2022-09-09T16:43:47;7.60;;;1.50;;
60026;SDS011;45891;53.006;6.512;2022-09-09T16:46:18;5.90;;;1.23;;
60026;SDS011;45891;53.006;6.512;2022-09-09T16:48:45;6.22;;;1.30;;
60026;SDS011;45891;53.006;6.512;2022-09-09T16:51:20;8.73;;;1.60;;
60026;SDS011;45891;53.006;6.512;2022-09-09T16:53:51;8.02;;;1.60;;
60026;SDS011;45891;53.006;6.512;2022-09-09T16:56:20;8.15;;;1.33;;
60026;SDS011;45891;53.006;6.512;2022-09-09T16:58:49;6.75;;;1.40;;
60026;SDS011;45891;53.006;6.512;2022-09-09T17:01:16;6.72;;;1.50;;
60026;SDS011;45891;53.006;6.512;2022-09-09T17:03:42;7.57;;;1.70;;
60026;SDS011;45891;53.006;6.512;2022-09-09T17:06:09;7.05;;;1.30;;
60026;SDS011;45891;53.006;6.512;2022-09-09T17:08:40;10.25;;;1.60;;
60026;SDS011;45891;53.006;6.512;2022-09-09T17:11:16;10.10;;;1.40;;
60026;SDS011;45891;53.006;6.512;2022-09-09T17:13:44;8.60;;;1.50;;
60026;SDS011;45891;53.006;6.512;2022-09-09T17:16:12;8.70;;;1.65;;
60026;SDS011;45891;53.006;6.512;2022-09-09T17:18:40;6.55;;;1.42;;
60026;SDS011;45891;53.006;6.512;2022-09-09T17:21:11;7.78;;;1.55;;
60026;SDS011;45891;53.006;6.512;2022-09-09T17:23:40;6.20;;;1.40;;
60026;SDS011;45891;53.006;6.512;2022-09-09T17:26:07;6.88;;;1.40;;
60026;SDS011;45891;53.006;6.512;2022-09-09T17:28:36;8.07;;;1.65;;